sensor_id;sensor_type;location;lat;lon;timestamp;pressure;altitude;pressure_sealevel;temperature;humidity
70445;BME280;57902;49.638;11.070;2023-02-19T00:01:45;98606.66;;;8.95;94.20
70445;BME280;57902;49.638;11.070;2023-02-19T00:04:17;98602.38;;;8.93;94.50
70445;BME280;57902;49.638;11.070;2023-02-19T00:06:45;98592.16;;;8.90;94.39
70445;BME280;57902;49.638;11.070;2023-02-19T00:09:17;98601.44;;;8.99;94.31
70445;BME280;57902;49.638;11.070;2023-02-19T00:11:44;98610.94;;;8.96;93.93
70445;BME280;57902;49.638;11.070;2023-02-19T00:14:15;98610.94;;;8.94;94.54
70445;BME280;57902;49.638;11.070;2023-02-19T00:16:42;98615.22;;;8.95;94.90
70445;BME280;57902;49.638;11.070;2023-02-19T00:19:12;98605.78;;;8.96;94.80
70445;BME280;57902;49.638;11.070;2023-02-19T00:21:39;98609.28;;;8.91;95.11
70445;BME280;57902;49.638;11.070;2023-02-19T00:24:09;98606.63;;;8.96;95.37
70445;BME280;57902;49.638;11.070;2023-02-19T00:26:37;98610.97;;;8.92;95.23
70445;BME280;57902;49.638;11.070;2023-02-19T00:29:05;98597.28;;;8.90;95.67
70445;BME280;57902;49.638;11.070;2023-02-19T00:31:33;98605.94;;;8.86;96.23
70445;BME280;57902;49.638;11.070;2023-02-19T00:34:04;98602.50;;;8.87;96.46
70445;BME280;57902;49.638;11.070;2023-02-19T00:36:33;98594.88;;;8.83;96.82
70445;BME280;57902;49.638;11.070;2023-02-19T00:39:01;98581.19;;;8.81;96.98
70445;BME280;57902;49.638;11.070;2023-02-19T00:41:28;98585.53;;;8.77;97.51
70445;BME280;57902;49.638;11.070;2023-02-19T00:44:01;98574.47;;;8.72;97.94
70445;BME280;57902;49.638;11.070;2023-02-19T00:46:31;98590.84;;;8.68;98.17
70445;BME280;57902;49.638;11.070;2023-02-19T00:48:58;98575.44;;;8.65;98.60
70445;BME280;57902;49.638;11.070;2023-02-19T00:51:27;98560.09;;;8.62;99.15
70445;BME280;57902;49.638;11.070;2023-02-19T00:53:54;98566.22;;;8.56;99.35
70445;BME280;57902;49.638;11.070;2023-02-19T00:56:20;98579.03;;;8.57;99.71
70445;BME280;57902;49.638;11.070;2023-02-19T00:58:47;98572.25;;;8.53;100.00
70445;BME280;57902;49.638;11.070;2023-02-19T01:01:14;98576.47;;;8.54;100.00
70445;BME280;57902;49.638;11.070;2023-02-19T01:03:42;98561.84;;;8.60;100.00
70445;BME280;57902;49.638;11.070;2023-02-19T01:06:09;98553.34;;;8.54;100.00
70445;BME280;57902;49.638;11.070;2023-02-19T01:08:36;98568.72;;;8.59;100.00
70445;BME280;57902;49.638;11.070;2023-02-19T01:11:05;98572.25;;;8.53;100.00
70445;BME280;57902;49.638;11.070;2023-02-19T01:13:32;98574.06;;;8.45;100.00
70445;BME280;57902;49.638;11.070;2023-02-19T01:16:15;98559.53;;;8.46;100.00
70445;BME280;57902;49.638;11.070;2023-02-19T01:18:43;98554.41;;;8.41;100.00
70445;BME280;57902;49.638;11.070;2023-02-19T01:21:18;98557.81;;;8.43;100.00
70445;BME280;57902;49.638;11.070;2023-02-19T01:23:46;98551.88;;;8.39;100.00
70445;BME280;57902;49.638;11.070;2023-02-19T01:26:18;98555.25;;;8.45;100.00
70445;BME280;57902;49.638;11.070;2023-02-19T01:28:46;98539.94;;;8.37;100.00
70445;BME280;57902;49.638;11.070;2023-02-19T01:31:21;98545.03;;;8.40;100.00
70445;BME280;57902;49.638;11.070;2023-02-19T01:33:54;98547.66;;;8.35;100.00
70445;BME280;57902;49.638;11.070;2023-02-19T01:36:22;98536.53;;;8.35;100.00
70445;BME280;57902;49.638;11.070;2023-02-19T01:38:48;98535.72;;;8.33;100.00
70445;BME280;57902;49.638;11.070;2023-02-19T01:41:25;98512.59;;;8.33;100.00
70445;BME280;57902;49.638;11.070;2023-02-19T01:44:04;98510.84;;;8.35;100.00
70445;BME280;57902;49.638;11.070;2023-02-19T01:46:38;98500.50;;;8.38;100.00
70445;BME280;57902;49.638;11.070;2023-02-19T01:49:12;98511.72;;;8.32;100.00
70445;BME280;57902;49.638;11.070;2023-02-19T01:51:55;98514.38;;;8.28;100.00
70445;BME280;57902;49.638;11.070;2023-02-19T01:54:25;98509.31;;;8.24;100.00
70445;BME280;57902;49.638;11.070;2023-02-19T01:56:54;98508.34;;;8.30;100.00
70445;BME280;57902;49.638;11.070;2023-02-19T01:59:21;98511.84;;;8.26;100.00
70445;BME280;57902;49.638;11.070;2023-02-19T02:01:48;98511.13;;;8.18;100.00
70445;BME280;57902;49.638;11.070;2023-02-19T02:04:15;98507.69;;;8.17;100.00
70445;BME280;57902;49.638;11.070;2023-02-19T02:06:50;98508.69;;;8.10;100.00
70445;BME280;57902;49.638;11.070;2023-02-19T02:09:19;98518.09;;;8.11;100.00
70445;BME280;57902;49.638;11.070;2023-02-19T02:12:04;98514.59;;;8.15;100.00
70445;BME280;57902;49.638;11.070;2023-02-19T02:14:35;98513.84;;;8.09;100.00
70445;BME280;57902;49.638;11.070;2023-02-19T02:20:22;98503.72;;;7.99;100.00
70445;BME280;57902;49.638;11.070;2023-02-19T02:23:05;98495.22;;;7.94;100.00
70445;BME280;57902;49.638;11.070;2023-02-19T02:31:15;98493.56;;;7.93;100.00
70445;BME280;57902;49.638;11.070;2023-02-19T02:33:48;98491.09;;;7.87;100.00
70445;BME280;57902;49.638;11.070;2023-02-19T02:36:21;98485.94;;;7.85;100.00
70445;BME280;57902;49.638;11.070;2023-02-19T02:38:50;98485.09;;;7.86;100.00
70445;BME280;57902;49.638;11.070;2023-02-19T02:41:19;98475.69;;;7.85;100.00
70445;BME280;57902;49.638;11.070;2023-02-19T02:43:46;98468.94;;;7.80;100.00
70445;BME280;57902;49.638;11.070;2023-02-19T02:46:21;98468.97;;;7.78;100.00
70445;BME280;57902;49.638;11.070;2023-02-19T02:48:54;98471.56;;;7.75;100.00
70445;BME280;57902;49.638;11.070;2023-02-19T02:51:31;98471.56;;;7.77;100.00
70445;BME280;57902;49.638;11.070;2023-02-19T02:54:19;98462.25;;;7.71;100.00
70445;BME280;57902;49.638;11.070;2023-02-19T02:57:06;98464.81;;;7.71;100.00
70445;BME280;57902;49.638;11.070;2023-02-19T02:59:37;98471.69;;;7.67;100.00
70445;BME280;57902;49.638;11.070;2023-02-19T03:02:10;98461.34;;;7.72;100.00
70445;BME280;57902;49.638;11.070;2023-02-19T03:04:53;98452.00;;;7.69;100.00
70445;BME280;57902;49.638;11.070;2023-02-19T03:08:06;98463.94;;;7.70;100.00
70445;BME280;57902;49.638;11.070;2023-02-19T03:10:47;98458.75;;;7.74;100.00
70445;BME280;57902;49.638;11.070;2023-02-19T03:13:19;98456.16;;;7.77;100.00
70445;BME280;57902;49.638;11.070;2023-02-19T03:16:09;98452.59;;;7.84;100.00
70445;BME280;57902;49.638;11.070;2023-02-19T03:18:57;98444.97;;;7.81;100.00
70445;BME280;57902;49.638;11.070;2023-02-19T03:21:48;98450.94;;;7.83;100.00
70445;BME280;57902;49.638;11.070;2023-02-19T03:24:18;98444.13;;;7.80;100.00
70445;BME280;57902;49.638;11.070;2023-02-19T03:27:06;98440.66;;;7.83;100.00
70445;BME280;57902;49.638;11.070;2023-02-19T03:29:36;98438.91;;;7.85;100.00
70445;BME280;57902;49.638;11.070;2023-02-19T03:32:17;98450.06;;;7.82;100.00
70445;BME280;57902;49.638;11.070;2023-02-19T03:34:57;98436.38;;;7.83;100.00
70445;BME280;57902;49.638;11.070;2023-02-19T03:37:32;98432.06;;;7.85;100.00
70445;BME280;57902;49.638;11.070;2023-02-19T03:40:01;98435.44;;;7.89;100.00
70445;BME280;57902;49.638;11.070;2023-02-19T03:42:30;98431.94;;;7.93;100.00
70445;BME280;57902;49.638;11.070;2023-02-19T03:47:46;98431.06;;;7.93;100.00
70445;BME280;57902;49.638;11.070;2023-02-19T03:50:33;98439.63;;;7.95;100.00
70445;BME280;57902;49.638;11.070;2023-02-19T03:53:06;98437.72;;;8.04;100.00
70445;BME280;57902;49.638;11.070;2023-02-19T03:55:42;98437.75;;;8.03;100.00
70445;BME280;57902;49.638;11.070;2023-02-19T03:58:34;98437.84;;;7.98;100.00
70445;BME280;57902;49.638;11.070;2023-02-19T04:01:17;98436.13;;;7.99;100.00
70445;BME280;57902;49.638;11.070;2023-02-19T04:03:52;98420.72;;;8.00;100.00
70445;BME280;57902;49.638;11.070;2023-02-19T04:06:26;98434.28;;;8.05;100.00
70445;BME280;57902;49.638;11.070;2023-02-19T04:08:55;98437.75;;;8.03;100.00
70445;BME280;57902;49.638;11.070;2023-02-19T04:11:24;98434.38;;;8.01;100.00
70445;BME280;57902;49.638;11.070;2023-02-19T04:16:28;98433.47;;;8.05;100.00
70445;BME280;57902;49.638;11.070;2023-02-19T04:19:02;98445.47;;;8.03;100.00
70445;BME280;57902;49.638;11.070;2023-02-19T04:21:31;98444.47;;;8.10;100.00
70445;BME280;57902;49.638;11.070;2023-02-19T04:24:03;98446.28;;;8.06;100.00
70445;BME280;57902;49.638;11.070;2023-02-19T04:26:32;98441.94;;;8.09;100.00
70445;BME280;57902;49.638;11.070;2023-02-19T04:28:59;98434.22;;;8.10;100.00
70445;BME280;57902;49.638;11.070;2023-02-19T04:31:26;98451.28;;;8.13;100.00
70445;BME280;57902;49.638;11.070;2023-02-19T04:33:54;98435.91;;;8.11;100.00
70445;BME280;57902;49.638;11.070;2023-02-19T04:36:21;98448.63;;;8.19;100.00
70445;BME280;57902;49.638;11.070;2023-02-19T04:38:47;98447.81;;;8.17;100.00
70445;BME280;57902;49.638;11.070;2023-02-19T04:41:16;98446.97;;;8.15;100.00
70445;BME280;57902;49.638;11.070;2023-02-19T04:43:42;98453.00;;;8.14;100.00
70445;BME280;57902;49.638;11.070;2023-02-19T04:46:09;98454.69;;;8.13;100.00
70445;BME280;57902;49.638;11.070;2023-02-19T04:48:35;98458.16;;;8.12;100.00
70445;BME280;57902;49.638;11.070;2023-02-19T04:51:06;98457.25;;;8.13;100.00
70445;BME280;57902;49.638;11.070;2023-02-19T04:53:33;98453.81;;;8.16;100.00
70445;BME280;57902;49.638;11.070;2023-02-19T04:56:09;98446.97;;;8.15;100.00
70445;BME280;57902;49.638;11.070;2023-02-19T04:58:36;98458.06;;;8.18;100.00
70445;BME280;57902;49.638;11.070;2023-02-19T05:01:03;98449.31;;;8.29;100.00
70445;BME280;57902;49.638;11.070;2023-02-19T05:03:30;98445.00;;;8.29;100.00
70445;BME280;57902;49.638;11.070;2023-02-19T05:06:01;98452.69;;;8.31;100.00
70445;BME280;57902;49.638;11.070;2023-02-19T05:08:27;98451.81;;;8.32;100.00
70445;BME280;57902;49.638;11.070;2023-02-19T05:10:57;98451.97;;;8.24;100.00
70445;BME280;57902;49.638;11.070;2023-02-19T05:13:24;98448.44;;;8.30;100.00
70445;BME280;57902;49.638;11.070;2023-02-19T05:16:02;98456.22;;;8.27;100.00
70445;BME280;57902;49.638;11.070;2023-02-19T05:18:30;98458.03;;;8.20;100.00
70445;BME280;57902;49.638;11.070;2023-02-19T05:20:57;98446.06;;;8.17;100.00
70445;BME280;57902;49.638;11.070;2023-02-19T05:23:25;98434.84;;;8.23;100.00
70445;BME280;57902;49.638;11.070;2023-02-19T05:25:52;98443.38;;;8.27;100.00
70445;BME280;57902;49.638;11.070;2023-02-19T05:28:19;98453.59;;;8.28;100.00
70445;BME280;57902;49.638;11.070;2023-02-19T05:30:50;98445.00;;;8.29;100.00
70445;BME280;57902;49.638;11.070;2023-02-19T05:33:19;98445.06;;;8.26;100.00
70445;BME280;57902;49.638;11.070;2023-02-19T05:35:49;98445.88;;;8.30;100.00
70445;BME280;57902;49.638;11.070;2023-02-19T05:38:17;98449.38;;;8.26;100.00
70445;BME280;57902;49.638;11.070;2023-02-19T05:40:44;98451.97;;;8.24;100.00
70445;BME280;57902;49.638;11.070;2023-02-19T05:43:11;98457.81;;;8.31;100.00
70445;BME280;57902;49.638;11.070;2023-02-19T05:45:38;98458.78;;;8.27;100.00
70445;BME280;57902;49.638;11.070;2023-02-19T05:48:06;98461.34;;;8.27;100.00
70445;BME280;57902;49.638;11.070;2023-02-19T05:50:34;98449.31;;;8.29;100.00
70445;BME280;57902;49.638;11.070;2023-02-19T05:53:04;98460.44;;;8.28;100.00
70445;BME280;57902;49.638;11.070;2023-02-19T05:55:34;98465.59;;;8.28;100.00
70445;BME280;57902;49.638;11.070;2023-02-19T05:58:00;98459.50;;;8.33;100.00
70445;BME280;57902;49.638;11.070;2023-02-19T06:00:27;98462.09;;;8.32;100.00
70445;BME280;57902;49.638;11.070;2023-02-19T06:02:56;98462.03;;;8.35;100.00
70445;BME280;57902;49.638;11.070;2023-02-19T06:05:22;98465.44;;;8.37;100.00
70445;BME280;57902;49.638;11.070;2023-02-19T06:07:49;98474.00;;;8.37;100.00
70445;BME280;57902;49.638;11.070;2023-02-19T06:10:16;98481.72;;;8.36;100.00
70445;BME280;57902;49.638;11.070;2023-02-19T06:12:43;98474.13;;;8.30;100.00
70445;BME280;57902;49.638;11.070;2023-02-19T06:15:09;98478.47;;;8.24;100.00
70445;BME280;57902;49.638;11.070;2023-02-19T06:17:36;98473.31;;;8.26;100.00
70445;BME280;57902;49.638;11.070;2023-02-19T06:20:03;98481.00;;;8.28;100.00
70445;BME280;57902;49.638;11.070;2023-02-19T06:22:29;98476.59;;;8.36;100.00
70445;BME280;57902;49.638;11.070;2023-02-19T06:24:55;98484.31;;;8.34;100.00
70445;BME280;57902;49.638;11.070;2023-02-19T06:27:22;98474.91;;;8.33;100.00
70445;BME280;57902;49.638;11.070;2023-02-19T06:29:49;98486.03;;;8.34;100.00
70445;BME280;57902;49.638;11.070;2023-02-19T06:32:18;98483.44;;;8.34;100.00
70445;BME280;57902;49.638;11.070;2023-02-19T06:34:48;98487.00;;;8.28;100.00
70445;BME280;57902;49.638;11.070;2023-02-19T06:37:15;98484.25;;;8.37;100.00
70445;BME280;57902;49.638;11.070;2023-02-19T06:39:41;98488.66;;;8.31;100.00
70445;BME280;57902;49.638;11.070;2023-02-19T06:42:11;98498.16;;;8.26;100.00
70445;BME280;57902;49.638;11.070;2023-02-19T06:44:38;98480.91;;;8.32;100.00
70445;BME280;57902;49.638;11.070;2023-02-19T06:47:16;98490.34;;;8.32;100.00
70445;BME280;57902;49.638;11.070;2023-02-19T06:49:42;98503.09;;;8.36;100.00
70445;BME280;57902;49.638;11.070;2023-02-19T06:52:09;98498.09;;;8.30;100.00
70445;BME280;57902;49.638;11.070;2023-02-19T06:54:35;98498.94;;;8.29;100.00
70445;BME280;57902;49.638;11.070;2023-02-19T06:57:01;98502.31;;;8.33;100.00
70445;BME280;57902;49.638;11.070;2023-02-19T06:59:31;98508.28;;;8.35;100.00
70445;BME280;57902;49.638;11.070;2023-02-19T07:01:57;98531.41;;;8.33;100.00
70445;BME280;57902;49.638;11.070;2023-02-19T07:04:24;98523.59;;;8.39;100.00
70445;BME280;57902;49.638;11.070;2023-02-19T07:06:50;98523.66;;;8.36;100.00
70445;BME280;57902;49.638;11.070;2023-02-19T07:09:17;98532.22;;;8.37;100.00
70445;BME280;57902;49.638;11.070;2023-02-19T07:11:45;98539.97;;;8.34;100.00
70445;BME280;57902;49.638;11.070;2023-02-19T07:14:15;98542.50;;;8.37;100.00
70445;BME280;57902;49.638;11.070;2023-02-19T07:16:42;98548.50;;;8.36;100.00
70445;BME280;57902;49.638;11.070;2023-02-19T07:19:09;98549.47;;;8.29;100.00
70445;BME280;57902;49.638;11.070;2023-02-19T07:21:38;98549.44;;;8.32;100.00
70445;BME280;57902;49.638;11.070;2023-02-19T07:24:04;98550.31;;;8.29;100.00
70445;BME280;57902;49.638;11.070;2023-02-19T07:26:31;98541.78;;;8.29;100.00
70445;BME280;57902;49.638;11.070;2023-02-19T07:28:58;98546.81;;;8.35;100.00
70445;BME280;57902;49.638;11.070;2023-02-19T07:31:24;98561.28;;;8.40;100.00
70445;BME280;57902;49.638;11.070;2023-02-19T07:33:51;98564.72;;;8.38;100.00
70445;BME280;57902;49.638;11.070;2023-02-19T07:36:18;98554.34;;;8.49;99.53
70445;BME280;57902;49.638;11.070;2023-02-19T07:38:45;98548.22;;;8.54;99.68
70445;BME280;57902;49.638;11.070;2023-02-19T07:41:12;98555.94;;;8.53;99.57
70445;BME280;57902;49.638;11.070;2023-02-19T07:43:39;98559.34;;;8.55;99.13
70445;BME280;57902;49.638;11.070;2023-02-19T07:46:09;98562.59;;;8.65;98.24
70445;BME280;57902;49.638;11.070;2023-02-19T07:48:36;98556.72;;;8.60;99.21
70445;BME280;57902;49.638;11.070;2023-02-19T07:51:04;98554.88;;;8.68;99.26
70445;BME280;57902;49.638;11.070;2023-02-19T07:53:32;98572.09;;;8.61;99.74
70445;BME280;57902;49.638;11.070;2023-02-19T07:56:00;98579.88;;;8.56;100.00
70445;BME280;57902;49.638;11.070;2023-02-19T07:58:27;98580.66;;;8.62;100.00
70445;BME280;57902;49.638;11.070;2023-02-19T08:00:54;98574.78;;;8.55;100.00
70445;BME280;57902;49.638;11.070;2023-02-19T08:03:21;98580.72;;;8.57;100.00
70445;BME280;57902;49.638;11.070;2023-02-19T08:05:48;98583.28;;;8.58;100.00
70445;BME280;57902;49.638;11.070;2023-02-19T08:08:16;98582.47;;;8.56;100.00
70445;BME280;57902;49.638;11.070;2023-02-19T08:10:43;98581.63;;;8.54;100.00
70445;BME280;57902;49.638;11.070;2023-02-19T08:13:29;98589.31;;;8.57;100.00
70445;BME280;57902;49.638;11.070;2023-02-19T08:18:39;98594.97;;;8.75;99.68
70445;BME280;57902;49.638;11.070;2023-02-19T08:21:06;98587.25;;;8.78;98.64
70445;BME280;57902;49.638;11.070;2023-02-19T08:23:33;98584.72;;;8.73;99.10
70445;BME280;57902;49.638;11.070;2023-02-19T08:26:00;98600.13;;;8.77;99.28
70445;BME280;57902;49.638;11.070;2023-02-19T08:28:28;98599.25;;;8.76;99.34
70445;BME280;57902;49.638;11.070;2023-02-19T08:31:04;98594.88;;;8.83;98.41
70445;BME280;57902;49.638;11.070;2023-02-19T08:33:31;98603.47;;;8.80;98.44
70445;BME280;57902;49.638;11.070;2023-02-19T08:36:00;98598.25;;;8.85;98.36
70445;BME280;57902;49.638;11.070;2023-02-19T08:38:30;98588.66;;;8.95;97.54
70445;BME280;57902;49.638;11.070;2023-02-19T08:40:57;98586.81;;;9.01;97.22
70445;BME280;57902;49.638;11.070;2023-02-19T08:43:23;98612.47;;;9.06;97.59
70445;BME280;57902;49.638;11.070;2023-02-19T08:45:52;98597.53;;;9.23;95.54
70445;BME280;57902;49.638;11.070;2023-02-19T08:48:18;98603.44;;;9.28;95.42
70445;BME280;57902;49.638;11.070;2023-02-19T08:50:52;98623.91;;;9.35;93.90
70445;BME280;57902;49.638;11.070;2023-02-19T08:53:18;98621.34;;;9.35;95.10
70445;BME280;57902;49.638;11.070;2023-02-19T08:55:45;98611.81;;;9.40;94.62
70445;BME280;57902;49.638;11.070;2023-02-19T08:58:11;98622.06;;;9.43;94.23
70445;BME280;57902;49.638;11.070;2023-02-19T09:00:38;98633.88;;;9.52;94.07
70445;BME280;57902;49.638;11.070;2023-02-19T09:03:04;98644.91;;;9.58;93.03
70445;BME280;57902;49.638;11.070;2023-02-19T09:05:31;98630.22;;;9.63;91.81
70445;BME280;57902;49.638;11.070;2023-02-19T09:07:57;98629.41;;;9.60;92.55
70445;BME280;57902;49.638;11.070;2023-02-19T09:10:24;98636.97;;;9.69;91.70
70445;BME280;57902;49.638;11.070;2023-02-19T09:12:50;98641.22;;;9.70;91.58
70445;BME280;57902;49.638;11.070;2023-02-19T09:15:17;98655.09;;;9.63;91.89
70445;BME280;57902;49.638;11.070;2023-02-19T09:17:44;98657.66;;;9.63;92.97
70445;BME280;57902;49.638;11.070;2023-02-19T09:20:11;98656.06;;;9.59;93.02
70445;BME280;57902;49.638;11.070;2023-02-19T09:22:37;98659.34;;;9.66;92.36
70445;BME280;57902;49.638;11.070;2023-02-19T09:25:04;98664.63;;;9.59;92.78
70445;BME280;57902;49.638;11.070;2023-02-19T09:27:30;98665.63;;;9.52;92.81
70445;BME280;57902;49.638;11.070;2023-02-19T09:29:57;98670.69;;;9.55;92.29
70445;BME280;57902;49.638;11.070;2023-02-19T09:32:23;98674.22;;;9.50;92.18
70445;BME280;57902;49.638;11.070;2023-02-19T09:34:50;98670.03;;;9.45;92.17
70445;BME280;57902;49.638;11.070;2023-02-19T09:37:16;98681.13;;;9.49;92.84
70445;BME280;57902;49.638;11.070;2023-02-19T09:39:43;98684.56;;;9.48;93.15
70445;BME280;57902;49.638;11.070;2023-02-19T09:42:14;98682.69;;;9.56;92.81
70445;BME280;57902;49.638;11.070;2023-02-19T09:44:47;98683.44;;;9.61;92.63
70445;BME280;57902;49.638;11.070;2023-02-19T09:47:33;98686.78;;;9.67;91.33
70445;BME280;57902;49.638;11.070;2023-02-19T09:50:11;98675.59;;;9.69;91.68
70445;BME280;57902;49.638;11.070;2023-02-19T09:52:44;98680.00;;;9.62;92.29
70445;BME280;57902;49.638;11.070;2023-02-19T09:55:26;98682.59;;;9.61;92.92
70445;BME280;57902;49.638;11.070;2023-02-19T09:57:58;98695.47;;;9.61;91.78
70445;BME280;57902;49.638;11.070;2023-02-19T10:00:28;98695.59;;;9.55;92.84
70445;BME280;57902;49.638;11.070;2023-02-19T10:03:04;98683.59;;;9.54;92.98
70445;BME280;57902;49.638;11.070;2023-02-19T10:05:32;98690.50;;;9.52;92.93
70445;BME280;57902;49.638;11.070;2023-02-19T10:08:01;98685.47;;;9.47;93.70
70445;BME280;57902;49.638;11.070;2023-02-19T10:10:33;98690.59;;;9.47;94.45
70445;BME280;57902;49.638;11.070;2023-02-19T10:13:12;98687.06;;;9.51;94.09
70445;BME280;57902;49.638;11.070;2023-02-19T10:15:56;98688.00;;;9.49;94.75
70445;BME280;57902;49.638;11.070;2023-02-19T10:18:26;98700.91;;;9.47;95.77
70445;BME280;57902;49.638;11.070;2023-02-19T10:20:57;98713.03;;;9.39;96.48
70445;BME280;57902;49.638;11.070;2023-02-19T10:23:24;98706.94;;;9.44;96.47
70445;BME280;57902;49.638;11.070;2023-02-19T10:25:55;98708.69;;;9.41;96.07
70445;BME280;57902;49.638;11.070;2023-02-19T10:28:25;98719.00;;;9.41;95.46
70445;BME280;57902;49.638;11.070;2023-02-19T10:30:57;98714.47;;;9.54;93.63
70445;BME280;57902;49.638;11.070;2023-02-19T10:33:24;98723.06;;;9.53;93.17
70445;BME280;57902;49.638;11.070;2023-02-19T10:35:59;98721.31;;;9.56;93.19
70445;BME280;57902;49.638;11.070;2023-02-19T10:38:44;98713.47;;;9.62;92.99
70445;BME280;57902;49.638;11.070;2023-02-19T10:41:14;98714.25;;;9.68;93.48
70445;BME280;57902;49.638;11.070;2023-02-19T10:44:07;98725.31;;;9.71;93.41
70445;BME280;57902;49.638;11.070;2023-02-19T10:46:44;98726.56;;;9.94;89.91
70445;BME280;57902;49.638;11.070;2023-02-19T10:49:28;98737.63;;;10.01;89.13
70445;BME280;57902;49.638;11.070;2023-02-19T10:51:59;98737.69;;;9.97;88.60
70445;BME280;57902;49.638;11.070;2023-02-19T10:54:31;98739.50;;;9.92;89.23
70445;BME280;57902;49.638;11.070;2023-02-19T10:57:25;98741.19;;;9.93;90.07
70445;BME280;57902;49.638;11.070;2023-02-19T11:00:26;98744.59;;;9.95;89.62
70445;BME280;57902;49.638;11.070;2023-02-19T11:03:19;98741.06;;;9.99;90.10
70445;BME280;57902;49.638;11.070;2023-02-19T11:05:59;98745.50;;;9.93;90.27
70445;BME280;57902;49.638;11.070;2023-02-19T11:08:26;98744.47;;;10.02;90.73
70445;BME280;57902;49.638;11.070;2023-02-19T11:10:53;98732.53;;;9.97;90.84
70445;BME280;57902;49.638;11.070;2023-02-19T11:13:30;98729.00;;;10.03;90.92
70445;BME280;57902;49.638;11.070;2023-02-19T11:15:58;98745.13;;;10.11;89.51
70445;BME280;57902;49.638;11.070;2023-02-19T11:18:31;98745.03;;;10.18;89.46
70445;BME280;57902;49.638;11.070;2023-02-19T11:21:02;98754.38;;;10.20;89.69
70445;BME280;57902;49.638;11.070;2023-02-19T11:23:36;98747.19;;;10.38;88.99
70445;BME280;57902;49.638;11.070;2023-02-19T11:26:21;98753.72;;;10.54;85.91
70445;BME280;57902;49.638;11.070;2023-02-19T11:29:10;98761.53;;;10.49;86.38
70445;BME280;57902;49.638;11.070;2023-02-19T11:31:37;98770.88;;;10.55;86.54
70445;BME280;57902;49.638;11.070;2023-02-19T11:36:41;98761.44;;;10.56;85.70
70445;BME280;57902;49.638;11.070;2023-02-19T11:42:02;98774.59;;;10.42;87.09
70445;BME280;57902;49.638;11.070;2023-02-19T11:50:12;98777.03;;;10.06;88.20
70445;BME280;57902;49.638;11.070;2023-02-19T11:53:12;98779.63;;;10.03;89.04
70445;BME280;57902;49.638;11.070;2023-02-19T12:07:30;98795.88;;;10.08;87.65
70445;BME280;57902;49.638;11.070;2023-02-19T12:12:39;98805.38;;;10.03;87.87
70445;BME280;57902;49.638;11.070;2023-02-19T12:35:41;98798.81;;;9.38;100.00
70445;BME280;57902;49.638;11.070;2023-02-19T12:38:30;98802.34;;;9.31;100.00
70445;BME280;57902;49.638;11.070;2023-02-19T12:41:20;98801.59;;;9.25;100.00
70445;BME280;57902;49.638;11.070;2023-02-19T12:44:04;98817.00;;;9.27;100.00
70445;BME280;57902;49.638;11.070;2023-02-19T12:46:37;98812.72;;;9.27;100.00
70445;BME280;57902;49.638;11.070;2023-02-19T12:49:10;98807.47;;;9.35;100.00
70445;BME280;57902;49.638;11.070;2023-02-19T12:51:44;98815.94;;;9.40;100.00
70445;BME280;57902;49.638;11.070;2023-02-19T12:54:33;98818.44;;;9.45;100.00
70445;BME280;57902;49.638;11.070;2023-02-19T12:57:01;98808.06;;;9.50;100.00
70445;BME280;57902;49.638;11.070;2023-02-19T12:59:40;98819.91;;;9.58;100.00
70445;BME280;57902;49.638;11.070;2023-02-19T13:04:46;98813.06;;;9.59;100.00
70445;BME280;57902;49.638;11.070;2023-02-19T13:07:20;98820.03;;;9.52;100.00
70445;BME280;57902;49.638;11.070;2023-02-19T13:09:55;98823.41;;;9.56;100.00
70445;BME280;57902;49.638;11.070;2023-02-19T13:12:39;98819.09;;;9.58;100.00
70445;BME280;57902;49.638;11.070;2023-02-19T13:15:15;98820.72;;;9.63;100.00
70445;BME280;57902;49.638;11.070;2023-02-19T13:17:44;98819.91;;;9.60;100.00
70445;BME280;57902;49.638;11.070;2023-02-19T13:20:31;98821.53;;;9.64;100.00
70445;BME280;57902;49.638;11.070;2023-02-19T13:23:07;98818.06;;;9.68;100.00
70445;BME280;57902;49.638;11.070;2023-02-19T13:29:02;98803.16;;;9.86;99.87
70445;BME280;57902;49.638;11.070;2023-02-19T13:32:05;98803.97;;;9.88;99.56
70445;BME280;57902;49.638;11.070;2023-02-19T13:34:55;98780.69;;;9.92;96.95
70445;BME280;57902;49.638;11.070;2023-02-19T13:37:25;98794.47;;;9.91;96.83
70445;BME280;57902;49.638;11.070;2023-02-19T13:39:54;98793.63;;;9.89;95.48
70445;BME280;57902;49.638;11.070;2023-02-19T13:42:34;98794.59;;;9.85;95.54
70445;BME280;57902;49.638;11.070;2023-02-19T13:45:03;98800.72;;;9.78;95.72
70445;BME280;57902;49.638;11.070;2023-02-19T13:47:46;98802.38;;;9.80;95.61
70445;BME280;57902;49.638;11.070;2023-02-19T13:50:26;98816.09;;;9.83;94.39
70445;BME280;57902;49.638;11.070;2023-02-19T13:52:54;98805.03;;;9.76;94.84
70445;BME280;57902;49.638;11.070;2023-02-19T13:58:37;98806.84;;;9.71;94.88
70445;BME280;57902;49.638;11.070;2023-02-19T14:01:09;98818.88;;;9.69;93.27
70445;BME280;57902;49.638;11.070;2023-02-19T14:03:46;98821.66;;;9.58;94.27
70445;BME280;57902;49.638;11.070;2023-02-19T14:06:16;98821.84;;;9.47;94.26
70445;BME280;57902;49.638;11.070;2023-02-19T14:08:52;98829.59;;;9.45;94.46
70445;BME280;57902;49.638;11.070;2023-02-19T14:17:28;98843.31;;;9.46;93.74
70445;BME280;57902;49.638;11.070;2023-02-19T14:30:34;98839.84;;;9.49;93.77
70445;BME280;57902;49.638;11.070;2023-02-19T14:33:08;98849.19;;;9.53;91.78
70445;BME280;57902;49.638;11.070;2023-02-19T14:35:43;98849.16;;;9.56;89.19
70445;BME280;57902;49.638;11.070;2023-02-19T14:38:26;98855.16;;;9.55;89.70
70445;BME280;57902;49.638;11.070;2023-02-19T14:40:55;98846.56;;;9.57;88.56
70445;BME280;57902;49.638;11.070;2023-02-19T14:43:24;98855.94;;;9.60;87.51
70445;BME280;57902;49.638;11.070;2023-02-19T14:46:05;98857.66;;;9.59;85.98
70445;BME280;57902;49.638;11.070;2023-02-19T14:48:38;98869.66;;;9.60;86.06